createdAt,value
2019-01-30T00:04:00.000Z,2.0
2019-01-30T00:09:00.000Z,2.0
2019-01-30T00:14:00.000Z,2.0
2019-01-30T00:19:00.000Z,2.0
2019-01-30T00:24:00.000Z,2.0
2019-01-30T00:29:00.000Z,2.0
2019-01-30T00:35:00.000Z,1.9
2019-01-30T00:40:00.000Z,1.9
2019-01-30T00:45:00.000Z,1.9
2019-01-30T00:50:00.000Z,1.8
2019-01-30T00:55:00.000Z,1.8
2019-01-30T01:00:00.000Z,1.8
2019-01-30T01:05:00.000Z,1.8
2019-01-30T01:10:00.000Z,1.8
2019-01-30T01:15:00.000Z,1.8
2019-01-30T01:20:00.000Z,1.8
2019-01-30T01:25:00.000Z,1.7
2019-01-30T01:30:00.000Z,1.7
2019-01-30T01:35:00.000Z,1.7
2019-01-30T01:40:00.000Z,1.8
2019-01-30T01:45:00.000Z,1.8
2019-01-30T01:50:00.000Z,1.9
2019-01-30T01:55:00.000Z,1.9
2019-01-30T02:00:00.000Z,1.8
2019-01-30T02:05:00.000Z,1.8
2019-01-30T02:10:00.000Z,1.8
2019-01-30T02:15:00.000Z,1.7
2019-01-30T02:20:00.000Z,1.6
2019-01-30T02:25:00.000Z,1.6
2019-01-30T02:30:00.000Z,1.5
2019-01-30T02:35:00.000Z,1.4
2019-01-30T02:40:00.000Z,1.4
2019-01-30T02:45:00.000Z,1.4
2019-01-30T02:50:00.000Z,1.4
2019-01-30T02:55:00.000Z,1.5
2019-01-30T03:00:00.000Z,1.5
2019-01-30T03:05:00.000Z,1.5
2019-01-30T03:11:00.000Z,1.4
2019-01-30T03:16:00.000Z,1.3
2019-01-30T03:21:00.000Z,1.3
2019-01-30T03:26:00.000Z,1.2
2019-01-30T03:31:00.000Z,1.2
2019-01-30T03:36:00.000Z,1.1
2019-01-30T03:41:00.000Z,1.0
2019-01-30T03:46:00.000Z,0.9
2019-01-30T03:51:00.000Z,0.8
2019-01-30T03:56:00.000Z,0.8
2019-01-30T04:01:00.000Z,0.7
2019-01-30T04:06:00.000Z,0.6
2019-01-30T04:11:00.000Z,0.5
2019-01-30T04:16:00.000Z,0.4
2019-01-30T04:21:00.000Z,0.4
2019-01-30T04:26:00.000Z,0.3
2019-01-30T04:31:00.000Z,0.2
2019-01-30T04:36:00.000Z,0.2
2019-01-30T04:41:00.000Z,0.2
2019-01-30T04:46:00.000Z,0.2
2019-01-30T04:51:00.000Z,0.1
2019-01-30T04:56:00.000Z,0.1
2019-01-30T05:01:00.000Z,0.1
2019-01-30T05:06:00.000Z,0.2
2019-01-30T05:11:00.000Z,0.2
2019-01-30T05:16:00.000Z,0.2
2019-01-30T05:21:00.000Z,0.2
2019-01-30T05:26:00.000Z,0.2
2019-01-30T05:31:00.000Z,0.2
2019-01-30T05:37:00.000Z,0.1
2019-01-30T05:42:00.000Z,0.1
2019-01-30T05:47:00.000Z,0.1
2019-01-30T05:52:00.000Z,-0.1
2019-01-30T05:57:00.000Z,-0.1
2019-01-30T06:02:00.000Z,-0.2
2019-01-30T06:07:00.000Z,-0.3
2019-01-30T06:12:00.000Z,-0.4
2019-01-30T06:17:00.000Z,-0.5
2019-01-30T06:22:00.000Z,-0.5
2019-01-30T06:27:00.000Z,-0.6
2019-01-30T06:32:00.000Z,-0.6
2019-01-30T06:37:00.000Z,-0.7
2019-01-30T06:42:00.000Z,-0.8
2019-01-30T06:47:00.000Z,-0.7
2019-01-30T06:52:00.000Z,-0.6
2019-01-30T06:57:00.000Z,-0.6
2019-01-30T07:02:00.000Z,-0.6
2019-01-30T07:07:00.000Z,-0.6
2019-01-30T07:12:00.000Z,-0.6
2019-01-30T07:17:00.000Z,-0.7
2019-01-30T07:22:00.000Z,-0.7
2019-01-30T07:27:00.000Z,-0.7
2019-01-30T07:32:00.000Z,-0.7
2019-01-30T07:37:00.000Z,-0.7
2019-01-30T07:42:00.000Z,-0.6
2019-01-30T07:47:00.000Z,-0.5
2019-01-30T07:52:00.000Z,-0.4
2019-01-30T07:57:00.000Z,-0.4
2019-01-30T08:02:00.000Z,-0.3
2019-01-30T08:07:00.000Z,-0.2
2019-01-30T08:12:00.000Z,-0.1
2019-01-30T08:17:00.000Z,-0.0
2019-01-30T08:22:00.000Z,0.1
2019-01-30T08:27:00.000Z,0.2
2019-01-30T08:32:00.000Z,0.3
2019-01-30T08:38:00.000Z,0.5
2019-01-30T08:43:00.000Z,0.7
2019-01-30T08:48:00.000Z,1.0
2019-01-30T08:53:00.000Z,1.4
2019-01-30T08:58:00.000Z,1.8
2019-01-30T09:03:00.000Z,2.1
2019-01-30T09:08:00.000Z,2.3
2019-01-30T09:13:00.000Z,3.2
2019-01-30T09:18:00.000Z,3.9
2019-01-30T09:23:00.000Z,5.7
2019-01-30T09:28:00.000Z,7.0
2019-01-30T09:33:00.000Z,8.1
2019-01-30T09:38:00.000Z,8.8
2019-01-30T09:43:00.000Z,9.4
2019-01-30T09:48:00.000Z,9.8
2019-01-30T09:53:00.000Z,10.1
2019-01-30T09:58:00.000Z,10.5
2019-01-30T10:03:00.000Z,10.8
2019-01-30T10:08:00.000Z,11.0
2019-01-30T10:13:00.000Z,11.1
2019-01-30T10:18:00.000Z,10.8
2019-01-30T10:23:00.000Z,10.4
2019-01-30T10:28:00.000Z,10.3
2019-01-30T10:33:00.000Z,10.3
2019-01-30T10:38:00.000Z,9.9
2019-01-30T10:43:00.000Z,9.8
2019-01-30T10:48:00.000Z,9.5
2019-01-30T10:53:00.000Z,9.2
2019-01-30T10:58:00.000Z,9.2
2019-01-30T11:03:00.000Z,9.0
2019-01-30T11:08:00.000Z,8.9
2019-01-30T11:13:00.000Z,8.6
2019-01-30T11:18:00.000Z,8.2
2019-01-30T11:24:00.000Z,8.0
2019-01-30T11:29:00.000Z,7.7
2019-01-30T11:34:00.000Z,7.2
2019-01-30T11:39:00.000Z,6.9
2019-01-30T11:44:00.000Z,6.6
2019-01-30T11:49:00.000Z,6.3
2019-01-30T11:54:00.000Z,6.0
2019-01-30T11:59:00.000Z,5.8
2019-01-30T12:04:00.000Z,5.5
2019-01-30T12:09:00.000Z,5.1
2019-01-30T12:14:00.000Z,4.8
2019-01-30T12:19:00.000Z,4.6
2019-01-30T12:24:00.000Z,4.5
2019-01-30T12:29:00.000Z,4.2
2019-01-30T12:34:00.000Z,4.2
2019-01-30T12:39:00.000Z,4.2
2019-01-30T12:44:00.000Z,4.3
2019-01-30T12:49:00.000Z,4.3
2019-01-30T12:54:00.000Z,4.2
2019-01-30T12:59:00.000Z,4.2
2019-01-30T13:04:00.000Z,4.2
2019-01-30T13:09:00.000Z,4.2
2019-01-30T13:14:00.000Z,4.2
2019-01-30T13:19:00.000Z,4.1
2019-01-30T13:24:00.000Z,4.1
2019-01-30T13:29:00.000Z,4.1
2019-01-30T13:34:00.000Z,4.1
2019-01-30T13:39:00.000Z,4.2
2019-01-30T13:44:00.000Z,4.2
2019-01-30T13:49:00.000Z,4.1
2019-01-30T13:54:00.000Z,3.9
2019-01-30T13:59:00.000Z,3.5
2019-01-30T14:04:00.000Z,3.3
2019-01-30T14:10:00.000Z,3.0
2019-01-30T14:15:00.000Z,2.8
2019-01-30T14:20:00.000Z,2.6
2019-01-30T14:25:00.000Z,2.4
2019-01-30T14:30:00.000Z,2.3
2019-01-30T14:35:00.000Z,2.1
2019-01-30T14:40:00.000Z,2.0
2019-01-30T14:45:00.000Z,2.0
2019-01-30T14:50:00.000Z,2.0
2019-01-30T14:55:00.000Z,1.9
2019-01-30T15:00:00.000Z,1.9
2019-01-30T15:05:00.000Z,1.9
2019-01-30T15:10:00.000Z,1.8
2019-01-30T15:15:00.000Z,1.8
2019-01-30T15:20:00.000Z,1.7
2019-01-30T15:25:00.000Z,1.6
2019-01-30T15:30:00.000Z,1.5
2019-01-30T15:35:00.000Z,1.4
2019-01-30T15:40:00.000Z,1.4
2019-01-30T15:45:00.000Z,1.4
2019-01-30T15:50:00.000Z,1.3
2019-01-30T15:55:00.000Z,1.4
2019-01-30T16:00:00.000Z,1.3
2019-01-30T16:05:00.000Z,1.4
2019-01-30T16:10:00.000Z,1.4
2019-01-30T16:15:00.000Z,1.4
2019-01-30T16:20:00.000Z,1.4
2019-01-30T16:25:00.000Z,1.3
2019-01-30T16:30:00.000Z,1.3
2019-01-30T16:35:00.000Z,1.4
2019-01-30T16:40:00.000Z,1.4
2019-01-30T16:45:00.000Z,1.5
2019-01-30T16:50:00.000Z,1.7
2019-01-30T16:55:00.000Z,1.7
2019-01-30T17:01:00.000Z,1.8
2019-01-30T17:06:00.000Z,1.8
2019-01-30T17:11:00.000Z,1.8
2019-01-30T17:16:00.000Z,1.9
2019-01-30T17:21:00.000Z,2.0
2019-01-30T17:26:00.000Z,2.0
2019-01-30T17:31:00.000Z,2.0
2019-01-30T17:36:00.000Z,2.1
2019-01-30T17:41:00.000Z,2.1
2019-01-30T17:46:00.000Z,2.1
2019-01-30T17:51:00.000Z,2.1
2019-01-30T17:56:00.000Z,2.1
2019-01-30T18:01:00.000Z,2.1
2019-01-30T18:06:00.000Z,2.2
2019-01-30T18:11:00.000Z,2.3
2019-01-30T18:16:00.000Z,2.3
2019-01-30T18:21:00.000Z,2.3
2019-01-30T18:26:00.000Z,2.3
2019-01-30T18:31:00.000Z,2.3
2019-01-30T18:36:00.000Z,2.3
2019-01-30T18:41:00.000Z,2.3
2019-01-30T18:46:00.000Z,2.3
2019-01-30T18:51:00.000Z,2.3
2019-01-30T18:56:00.000Z,2.4
2019-01-30T19:01:00.000Z,2.4
2019-01-30T19:06:00.000Z,2.3
2019-01-30T19:11:00.000Z,2.4
2019-01-30T19:16:00.000Z,2.4
2019-01-30T19:21:00.000Z,2.5
2019-01-30T19:26:00.000Z,2.5
2019-01-30T19:31:00.000Z,2.6
2019-01-30T19:36:00.000Z,2.6
2019-01-30T19:42:00.000Z,2.5
2019-01-30T19:47:00.000Z,2.5
2019-01-30T19:52:00.000Z,2.4
2019-01-30T19:57:00.000Z,2.4
2019-01-30T20:02:00.000Z,2.3
2019-01-30T20:07:00.000Z,2.3
2019-01-30T20:12:00.000Z,2.3
2019-01-30T20:17:00.000Z,2.4
2019-01-30T20:22:00.000Z,2.4
2019-01-30T20:27:00.000Z,2.4
2019-01-30T20:32:00.000Z,2.3
2019-01-30T20:37:00.000Z,2.3
2019-01-30T20:42:00.000Z,2.3
2019-01-30T20:47:00.000Z,2.3
2019-01-30T20:52:00.000Z,2.4
2019-01-30T20:57:00.000Z,2.4
2019-01-30T21:02:00.000Z,2.5
2019-01-30T21:07:00.000Z,2.5
2019-01-30T21:12:00.000Z,2.5
2019-01-30T21:17:00.000Z,2.4
2019-01-30T21:22:00.000Z,2.4
2019-01-30T21:27:00.000Z,2.4
2019-01-30T21:32:00.000Z,2.5
2019-01-30T21:37:00.000Z,2.6
2019-01-30T21:42:00.000Z,2.7
2019-01-30T21:47:00.000Z,2.6
2019-01-30T21:52:00.000Z,2.6
2019-01-30T21:57:00.000Z,2.6
2019-01-30T22:02:00.000Z,2.5
2019-01-30T22:07:00.000Z,2.4
2019-01-30T22:13:00.000Z,2.3
2019-01-30T22:18:00.000Z,2.2
2019-01-30T22:23:00.000Z,2.2
2019-01-30T22:28:00.000Z,2.1
2019-01-30T22:33:00.000Z,2.1
2019-01-30T22:38:00.000Z,2.0
2019-01-30T22:43:00.000Z,2.0
2019-01-30T22:48:00.000Z,2.0
2019-01-30T22:53:00.000Z,1.9
2019-01-30T22:58:00.000Z,1.9
2019-01-30T23:03:00.000Z,1.9
2019-01-30T23:08:00.000Z,1.9
2019-01-30T23:13:00.000Z,2.0
2019-01-30T23:18:00.000Z,2.0
2019-01-30T23:23:00.000Z,1.9
2019-01-30T23:28:00.000Z,1.9
2019-01-30T23:33:00.000Z,1.9
2019-01-30T23:38:00.000Z,1.9
2019-01-30T23:43:00.000Z,1.9
2019-01-30T23:48:00.000Z,1.9
2019-01-30T23:53:00.000Z,1.9
2019-01-30T23:58:00.000Z,1.9
